Victoria Falls, Zimbabwe

1:05 PM CAT on July 31, 2016 (GMT +0200)
Livingstone | | Change Station

Elev 3061 ft 17.85 °S, 25.86 °E | Updated 2 seconds ago

Clear
Clear
91.9 °F
Feels Like 88 °F
N
1.7
Wind Variable Wind from North
Gusts 6.9 mph

Today
High -- | Low -- °F
--% Chance of Precip.
Yesterday
High -- | Low -- °F
Precip. -- in
Pressure 30.12 in
Visibility -9999.0 miles
Clouds
Heat Index 88 °F
Dew Point 38 °F
Humidity 15%
Rainfall 0.00 in
Snow Depth Not available.
6:43 AM 6:02 PM
Waning Crescent, 7% visible
METAR FBKE 311000Z 06009KT 010V100 CAVOK 30/M01 Q1020
Pressure 30.12 in
Visibility -9999.0 miles
Clouds
Heat Index 88 °F
Dew Point 38 °F
Humidity 15%
Rainfall 0.00 in
Snow Depth Not available.
6:43 AM 6:02 PM
Waning Crescent, 7% visible
METAR FBKE 311000Z 06009KT 010V100 CAVOK 30/M01 Q1020

10-Day Weather Forecast

No radar image for this location.
×

Almanac

Astronomy

Jul. 31, 2016 Rise Set
Actual Time
Civil Twilight
Nautical Twilight
Astronomical Twilight
Moon
Length of Visible Light
Length of Day
Tomorrow will be .
, % of the Moon is Illuminated

Today's Extremes

Country Highs Country Lows

Community

WunderPhotos

Upload Photos

1,928,787 photos uploaded!

WunderBlog® & News

Nearby

Air Quality

  Air Quality AQ Index Pollutant
Not available.

Snow Depth

Station Depth Elevation

Earthquake Activity

City Distance Mag. Time & Date
Minimum magnitude displayed is 2.5.

Coastal Water Temperatures

Place Temperature

Stations

Nearby Weather Stations

Station Location Temp. Windchill Dew Point Humidity Wind Precip. Elev Updated Type